Rae, Canada
Current Conditions -  °F | °C
As of 11:00 AM on Friday 24 Oct 2014 (Local Time) from CYZF Reporting Station
Overcast Overcast  
Wind Chill: 17°   Ceiling: 700
Heat Index: 28°   Visibility: 12mi
Dew Point: 27°   Wind: 14mph
Humidity: 93%   Direction: 320°NW
Pressure: 29.56"   Gusts: 21mph
Location:  62.83°N, 116.04°W
Report Text: CYZF 241700Z 32012G18KT 12SM BKN007 OVC042 M02/M03 A2956 RMK SC7SC1 SLP024
Loading
Personal Weather Stations






























Interactive Weather Map
Tropical Storm Tracking
New forecast layout! Learn more

10-Day Weather Forecast

Advertisements
Track Severe Weather on mobile